Port Columbus International Airport
KCMH : now visible

Airfield :











YOU CAN JOIN US ON...

 
LOGIN :

Register | Disclaimer

   EN    FR    IT 

 









Legend :    VFR   Marginal VFR   IFR   Intensive IFR   Very Intensive IFR
Visi :
Ceiling :
>= 8 km
>= 3000ft
5 to 8 km
1000 to 3000 ft
1500m to 5 km
500 to 1000 ft
800 to 1500m
200 to 500 ft
< 800m
< 200 ft
Symbols :   Thunderstorms  Fog  Heavy snow  Heavy precipitations  Wind > 20 kt






- Airport Elevation : 815 ft
- IATA code : CMH


KCMH - Port Columbus International

CURRENT METAR :
  • 280351Z 15010G15KT 10SM OVC210 24/16 A3000 RMK AO2 SLP151 T02440156

EXPIRED METARs :
  • 280251Z 14007KT 10SM OVC220 25/17 A3000 RMK AO2 SLP150 T02500167 53003
  • 280151Z 13004KT 10SM FEW075 BKN230 26/17 A2998 RMK AO2 SLP146 T02610167

TAF KCMH
Valid from the 28 at 00:00 until the 29 at 00:00 UTC


272320Z 2800/2824 15012KT P6SM SCT060 BKN120
FM280100 14005KT P6SM BKN100
FM280800 12005KT P6SM VCSH SCT030 BKN080
FM281400 18005KT P6SM VCSH SCT035 BKN050
FM281700 20010KT P6SM VCSH SCT035 BKN060
KZID FIR / North America



MET'MAP, your aeronautical weather chart ! - Copyright ORBIFLY December 2007 - Disclaimer

ORBIFLY MET'MAP TEAM :

Programming & Development : Alexandra Zaïnal
Concept & original design : Baudouin d'Aumeries
Assistance for programming : Marc-Olivier Méhu
Technical & hardware support : Manuel Goepfert

Contact : metmap@orbifly.com




SOURCES & CREDITS :

   NOAA       Earth
Advisory